sensor_id;sensor_type;location;lat;lon;timestamp;P1;durP1;ratioP1;P2;durP2;ratioP2
81697;SDS011;71109;52.514;5.708;2024-02-15T00:00:35;51.22;;;16.45;;
81697;SDS011;71109;52.514;5.708;2024-02-15T00:03:02;59.67;;;16.63;;
81697;SDS011;71109;52.514;5.708;2024-02-15T00:05:31;40.22;;;13.77;;
81697;SDS011;71109;52.514;5.708;2024-02-15T00:07:57;48.92;;;13.57;;
81697;SDS011;71109;52.514;5.708;2024-02-15T00:10:22;43.70;;;12.47;;
81697;SDS011;71109;52.514;5.708;2024-02-15T00:12:49;39.22;;;11.70;;
81697;SDS011;71109;52.514;5.708;2024-02-15T00:15:16;28.65;;;11.05;;
81697;SDS011;71109;52.514;5.708;2024-02-15T00:17:41;33.58;;;10.52;;
81697;SDS011;71109;52.514;5.708;2024-02-15T00:20:07;36.25;;;10.75;;
81697;SDS011;71109;52.514;5.708;2024-02-15T00:22:34;31.52;;;8.65;;
81697;SDS011;71109;52.514;5.708;2024-02-15T00:24:59;24.10;;;8.87;;
81697;SDS011;71109;52.514;5.708;2024-02-15T00:27:24;19.10;;;7.97;;
81697;SDS011;71109;52.514;5.708;2024-02-15T00:29:50;24.52;;;8.52;;
81697;SDS011;71109;52.514;5.708;2024-02-15T00:32:15;30.65;;;8.85;;
81697;SDS011;71109;52.514;5.708;2024-02-15T00:34:41;29.30;;;8.65;;
81697;SDS011;71109;52.514;5.708;2024-02-15T00:37:06;31.30;;;9.50;;
81697;SDS011;71109;52.514;5.708;2024-02-15T00:39:32;39.63;;;10.77;;
81697;SDS011;71109;52.514;5.708;2024-02-15T00:41:57;30.73;;;8.37;;
81697;SDS011;71109;52.514;5.708;2024-02-15T00:44:25;30.92;;;11.68;;
81697;SDS011;71109;52.514;5.708;2024-02-15T00:46:50;31.75;;;11.88;;
81697;SDS011;71109;52.514;5.708;2024-02-15T00:49:16;30.27;;;8.90;;
81697;SDS011;71109;52.514;5.708;2024-02-15T00:51:41;31.42;;;10.13;;
81697;SDS011;71109;52.514;5.708;2024-02-15T00:54:07;37.60;;;9.43;;
81697;SDS011;71109;52.514;5.708;2024-02-15T00:56:32;24.15;;;9.45;;
81697;SDS011;71109;52.514;5.708;2024-02-15T00:58:59;40.40;;;9.32;;
81697;SDS011;71109;52.514;5.708;2024-02-15T01:01:25;27.35;;;7.60;;
81697;SDS011;71109;52.514;5.708;2024-02-15T01:03:51;41.05;;;9.50;;
81697;SDS011;71109;52.514;5.708;2024-02-15T01:06:16;26.37;;;8.30;;
81697;SDS011;71109;52.514;5.708;2024-02-15T01:08:42;31.85;;;9.35;;
81697;SDS011;71109;52.514;5.708;2024-02-15T01:11:07;24.75;;;7.68;;
81697;SDS011;71109;52.514;5.708;2024-02-15T01:13:34;32.90;;;8.80;;
81697;SDS011;71109;52.514;5.708;2024-02-15T01:16:00;26.60;;;7.47;;
81697;SDS011;71109;52.514;5.708;2024-02-15T01:18:28;26.67;;;8.77;;
81697;SDS011;71109;52.514;5.708;2024-02-15T01:20:54;34.15;;;8.35;;
81697;SDS011;71109;52.514;5.708;2024-02-15T01:23:20;40.20;;;9.52;;
81697;SDS011;71109;52.514;5.708;2024-02-15T01:25:47;35.22;;;8.80;;
81697;SDS011;71109;52.514;5.708;2024-02-15T01:28:13;36.55;;;10.50;;
81697;SDS011;71109;52.514;5.708;2024-02-15T01:30:38;38.30;;;9.50;;
81697;SDS011;71109;52.514;5.708;2024-02-15T01:33:03;31.97;;;9.23;;
81697;SDS011;71109;52.514;5.708;2024-02-15T01:35:29;33.60;;;11.13;;
81697;SDS011;71109;52.514;5.708;2024-02-15T01:37:54;33.43;;;10.20;;
81697;SDS011;71109;52.514;5.708;2024-02-15T01:40:19;31.03;;;10.27;;
81697;SDS011;71109;52.514;5.708;2024-02-15T01:42:45;32.53;;;11.00;;
81697;SDS011;71109;52.514;5.708;2024-02-15T01:45:10;40.15;;;12.00;;
81697;SDS011;71109;52.514;5.708;2024-02-15T01:47:38;38.22;;;12.45;;
81697;SDS011;71109;52.514;5.708;2024-02-15T01:50:05;27.92;;;11.68;;
81697;SDS011;71109;52.514;5.708;2024-02-15T01:52:32;41.42;;;11.73;;
81697;SDS011;71109;52.514;5.708;2024-02-15T01:54:58;45.35;;;12.95;;
81697;SDS011;71109;52.514;5.708;2024-02-15T01:57:23;42.15;;;12.68;;
81697;SDS011;71109;52.514;5.708;2024-02-15T01:59:51;28.58;;;11.70;;
81697;SDS011;71109;52.514;5.708;2024-02-15T02:02:17;40.17;;;12.88;;
81697;SDS011;71109;52.514;5.708;2024-02-15T02:04:44;33.92;;;10.90;;
81697;SDS011;71109;52.514;5.708;2024-02-15T02:07:10;34.88;;;12.48;;
81697;SDS011;71109;52.514;5.708;2024-02-15T02:09:36;29.42;;;10.05;;
81697;SDS011;71109;52.514;5.708;2024-02-15T02:12:01;29.60;;;10.90;;
81697;SDS011;71109;52.514;5.708;2024-02-15T02:14:26;30.75;;;9.63;;
81697;SDS011;71109;52.514;5.708;2024-02-15T02:16:52;32.63;;;11.20;;
81697;SDS011;71109;52.514;5.708;2024-02-15T02:19:18;38.35;;;11.77;;
81697;SDS011;71109;52.514;5.708;2024-02-15T02:21:43;34.93;;;11.13;;
81697;SDS011;71109;52.514;5.708;2024-02-15T02:24:21;28.65;;;10.48;;
81697;SDS011;71109;52.514;5.708;2024-02-15T02:26:47;23.42;;;9.93;;
81697;SDS011;71109;52.514;5.708;2024-02-15T02:29:13;29.48;;;11.13;;
81697;SDS011;71109;52.514;5.708;2024-02-15T02:31:39;38.63;;;12.15;;
81697;SDS011;71109;52.514;5.708;2024-02-15T02:34:05;29.33;;;11.85;;
81697;SDS011;71109;52.514;5.708;2024-02-15T02:36:32;29.25;;;10.25;;
81697;SDS011;71109;52.514;5.708;2024-02-15T02:38:58;35.67;;;13.20;;
81697;SDS011;71109;52.514;5.708;2024-02-15T02:41:25;38.58;;;12.90;;
81697;SDS011;71109;52.514;5.708;2024-02-15T02:43:51;33.67;;;13.57;;
81697;SDS011;71109;52.514;5.708;2024-02-15T02:46:17;35.27;;;12.03;;
81697;SDS011;71109;52.514;5.708;2024-02-15T02:48:42;33.47;;;13.33;;
81697;SDS011;71109;52.514;5.708;2024-02-15T02:51:07;41.65;;;14.73;;
81697;SDS011;71109;52.514;5.708;2024-02-15T02:53:33;43.80;;;15.93;;
81697;SDS011;71109;52.514;5.708;2024-02-15T02:55:58;34.70;;;13.95;;
81697;SDS011;71109;52.514;5.708;2024-02-15T02:58:24;37.53;;;13.52;;
81697;SDS011;71109;52.514;5.708;2024-02-15T03:00:49;40.55;;;15.07;;
81697;SDS011;71109;52.514;5.708;2024-02-15T03:03:16;41.65;;;17.40;;
81697;SDS011;71109;52.514;5.708;2024-02-15T03:05:42;39.95;;;16.15;;
81697;SDS011;71109;52.514;5.708;2024-02-15T03:08:13;42.33;;;16.30;;
81697;SDS011;71109;52.514;5.708;2024-02-15T03:10:39;44.40;;;16.05;;
81697;SDS011;71109;52.514;5.708;2024-02-15T03:13:05;41.95;;;16.42;;
81697;SDS011;71109;52.514;5.708;2024-02-15T03:15:32;44.42;;;15.43;;
81697;SDS011;71109;52.514;5.708;2024-02-15T03:17:58;38.95;;;17.10;;
81697;SDS011;71109;52.514;5.708;2024-02-15T03:20:23;53.23;;;18.50;;
81697;SDS011;71109;52.514;5.708;2024-02-15T03:25:23;48.88;;;17.20;;
81697;SDS011;71109;52.514;5.708;2024-02-15T03:27:50;50.10;;;16.70;;
81697;SDS011;71109;52.514;5.708;2024-02-15T03:30:18;49.17;;;18.42;;
81697;SDS011;71109;52.514;5.708;2024-02-15T03:32:45;50.35;;;17.73;;
81697;SDS011;71109;52.514;5.708;2024-02-15T03:35:13;48.25;;;17.58;;
81697;SDS011;71109;52.514;5.708;2024-02-15T03:37:39;47.50;;;17.48;;
81697;SDS011;71109;52.514;5.708;2024-02-15T03:40:05;42.53;;;18.15;;
81697;SDS011;71109;52.514;5.708;2024-02-15T03:42:31;52.60;;;19.27;;
81697;SDS011;71109;52.514;5.708;2024-02-15T03:44:56;40.80;;;16.30;;
81697;SDS011;71109;52.514;5.708;2024-02-15T03:47:22;36.78;;;16.48;;
81697;SDS011;71109;52.514;5.708;2024-02-15T03:49:48;46.58;;;18.38;;
81697;SDS011;71109;52.514;5.708;2024-02-15T03:52:13;45.97;;;17.87;;
81697;SDS011;71109;52.514;5.708;2024-02-15T03:54:38;45.67;;;17.57;;
81697;SDS011;71109;52.514;5.708;2024-02-15T03:57:04;49.47;;;18.27;;
81697;SDS011;71109;52.514;5.708;2024-02-15T03:59:31;41.55;;;16.63;;
81697;SDS011;71109;52.514;5.708;2024-02-15T04:01:57;40.33;;;17.52;;
81697;SDS011;71109;52.514;5.708;2024-02-15T04:04:23;40.70;;;16.52;;
81697;SDS011;71109;52.514;5.708;2024-02-15T04:06:51;39.72;;;17.02;;
81697;SDS011;71109;52.514;5.708;2024-02-15T04:09:17;41.25;;;16.55;;
81697;SDS011;71109;52.514;5.708;2024-02-15T04:11:43;37.47;;;16.65;;
81697;SDS011;71109;52.514;5.708;2024-02-15T04:14:12;39.92;;;15.65;;
81697;SDS011;71109;52.514;5.708;2024-02-15T04:16:37;47.47;;;16.05;;
81697;SDS011;71109;52.514;5.708;2024-02-15T04:19:02;42.65;;;16.23;;
81697;SDS011;71109;52.514;5.708;2024-02-15T04:21:29;41.55;;;16.52;;
81697;SDS011;71109;52.514;5.708;2024-02-15T04:23:55;36.85;;;15.32;;
81697;SDS011;71109;52.514;5.708;2024-02-15T04:26:21;34.70;;;14.20;;
81697;SDS011;71109;52.514;5.708;2024-02-15T04:28:46;35.78;;;16.33;;
81697;SDS011;71109;52.514;5.708;2024-02-15T04:31:17;38.08;;;15.23;;
81697;SDS011;71109;52.514;5.708;2024-02-15T04:33:42;42.03;;;14.63;;
81697;SDS011;71109;52.514;5.708;2024-02-15T04:36:08;44.50;;;14.13;;
81697;SDS011;71109;52.514;5.708;2024-02-15T04:38:33;35.80;;;14.73;;
81697;SDS011;71109;52.514;5.708;2024-02-15T04:41:00;42.17;;;14.93;;
81697;SDS011;71109;52.514;5.708;2024-02-15T04:43:30;34.00;;;14.75;;
81697;SDS011;71109;52.514;5.708;2024-02-15T04:45:57;37.38;;;14.43;;
81697;SDS011;71109;52.514;5.708;2024-02-15T04:48:23;39.90;;;13.20;;
81697;SDS011;71109;52.514;5.708;2024-02-15T04:50:49;33.38;;;14.07;;
81697;SDS011;71109;52.514;5.708;2024-02-15T04:53:16;28.10;;;13.27;;
81697;SDS011;71109;52.514;5.708;2024-02-15T04:55:42;36.22;;;13.57;;
81697;SDS011;71109;52.514;5.708;2024-02-15T04:58:07;38.72;;;12.85;;
81697;SDS011;71109;52.514;5.708;2024-02-15T05:00:35;36.17;;;14.38;;
81697;SDS011;71109;52.514;5.708;2024-02-15T05:03:01;36.03;;;13.10;;
81697;SDS011;71109;52.514;5.708;2024-02-15T05:05:27;33.17;;;14.10;;
81697;SDS011;71109;52.514;5.708;2024-02-15T05:07:54;35.47;;;12.60;;
81697;SDS011;71109;52.514;5.708;2024-02-15T05:10:19;30.98;;;12.90;;
81697;SDS011;71109;52.514;5.708;2024-02-15T05:12:45;38.63;;;13.43;;
81697;SDS011;71109;52.514;5.708;2024-02-15T05:15:12;41.30;;;12.80;;
81697;SDS011;71109;52.514;5.708;2024-02-15T05:17:42;38.72;;;13.85;;
81697;SDS011;71109;52.514;5.708;2024-02-15T05:20:10;39.22;;;13.30;;
81697;SDS011;71109;52.514;5.708;2024-02-15T05:22:37;35.95;;;12.00;;
81697;SDS011;71109;52.514;5.708;2024-02-15T05:25:04;39.25;;;12.23;;
81697;SDS011;71109;52.514;5.708;2024-02-15T05:27:30;37.95;;;13.13;;
81697;SDS011;71109;52.514;5.708;2024-02-15T05:29:56;46.63;;;14.55;;
81697;SDS011;71109;52.514;5.708;2024-02-15T05:32:21;31.15;;;11.57;;
81697;SDS011;71109;52.514;5.708;2024-02-15T05:34:47;37.38;;;12.55;;
81697;SDS011;71109;52.514;5.708;2024-02-15T05:37:12;36.22;;;13.50;;
81697;SDS011;71109;52.514;5.708;2024-02-15T05:39:39;33.63;;;12.23;;
81697;SDS011;71109;52.514;5.708;2024-02-15T05:42:05;31.90;;;13.20;;
81697;SDS011;71109;52.514;5.708;2024-02-15T05:44:30;36.67;;;12.73;;
81697;SDS011;71109;52.514;5.708;2024-02-15T05:46:55;33.33;;;12.27;;
81697;SDS011;71109;52.514;5.708;2024-02-15T05:49:21;43.63;;;15.15;;
81697;SDS011;71109;52.514;5.708;2024-02-15T05:51:48;36.28;;;13.30;;
81697;SDS011;71109;52.514;5.708;2024-02-15T05:54:14;39.92;;;14.82;;
81697;SDS011;71109;52.514;5.708;2024-02-15T05:56:39;33.50;;;14.27;;
81697;SDS011;71109;52.514;5.708;2024-02-15T05:59:05;30.05;;;14.23;;
81697;SDS011;71109;52.514;5.708;2024-02-15T06:01:35;42.38;;;15.73;;
81697;SDS011;71109;52.514;5.708;2024-02-15T06:04:04;49.83;;;15.38;;
81697;SDS011;71109;52.514;5.708;2024-02-15T06:06:33;36.22;;;14.27;;
81697;SDS011;71109;52.514;5.708;2024-02-15T06:08:58;38.58;;;13.88;;
81697;SDS011;71109;52.514;5.708;2024-02-15T06:11:25;35.35;;;14.45;;
81697;SDS011;71109;52.514;5.708;2024-02-15T06:13:50;31.52;;;14.20;;
81697;SDS011;71109;52.514;5.708;2024-02-15T06:16:16;46.45;;;16.50;;
81697;SDS011;71109;52.514;5.708;2024-02-15T06:18:41;46.20;;;16.27;;
81697;SDS011;71109;52.514;5.708;2024-02-15T06:21:06;37.70;;;16.00;;
81697;SDS011;71109;52.514;5.708;2024-02-15T06:23:32;44.05;;;15.57;;
81697;SDS011;71109;52.514;5.708;2024-02-15T06:25:58;32.70;;;14.20;;
81697;SDS011;71109;52.514;5.708;2024-02-15T06:28:25;39.63;;;15.27;;
81697;SDS011;71109;52.514;5.708;2024-02-15T06:31:10;31.48;;;13.82;;
81697;SDS011;71109;52.514;5.708;2024-02-15T06:33:54;37.55;;;15.32;;
81697;SDS011;71109;52.514;5.708;2024-02-15T06:36:52;40.00;;;16.13;;
81697;SDS011;71109;52.514;5.708;2024-02-15T06:39:37;32.13;;;13.18;;
81697;SDS011;71109;52.514;5.708;2024-02-15T06:42:12;39.53;;;15.70;;
81697;SDS011;71109;52.514;5.708;2024-02-15T06:44:43;32.40;;;14.48;;
81697;SDS011;71109;52.514;5.708;2024-02-15T06:47:10;30.85;;;14.20;;
81697;SDS011;71109;52.514;5.708;2024-02-15T06:49:36;42.53;;;15.32;;
81697;SDS011;71109;52.514;5.708;2024-02-15T06:52:04;36.65;;;15.38;;
81697;SDS011;71109;52.514;5.708;2024-02-15T06:54:32;38.15;;;15.18;;
81697;SDS011;71109;52.514;5.708;2024-02-15T06:56:58;39.53;;;15.82;;
81697;SDS011;71109;52.514;5.708;2024-02-15T06:59:23;34.00;;;14.55;;
81697;SDS011;71109;52.514;5.708;2024-02-15T07:01:49;27.40;;;15.32;;
81697;SDS011;71109;52.514;5.708;2024-02-15T07:04:17;36.42;;;15.73;;
81697;SDS011;71109;52.514;5.708;2024-02-15T07:06:42;39.08;;;17.00;;
81697;SDS011;71109;52.514;5.708;2024-02-15T07:09:11;40.10;;;15.13;;
81697;SDS011;71109;52.514;5.708;2024-02-15T07:11:36;41.50;;;15.70;;
81697;SDS011;71109;52.514;5.708;2024-02-15T07:14:02;32.22;;;15.18;;
81697;SDS011;71109;52.514;5.708;2024-02-15T07:16:29;35.10;;;14.85;;
81697;SDS011;71109;52.514;5.708;2024-02-15T07:18:55;36.70;;;16.85;;
81697;SDS011;71109;52.514;5.708;2024-02-15T07:21:20;39.00;;;15.80;;
81697;SDS011;71109;52.514;5.708;2024-02-15T07:23:50;42.22;;;15.40;;
81697;SDS011;71109;52.514;5.708;2024-02-15T07:26:16;33.25;;;15.27;;
81697;SDS011;71109;52.514;5.708;2024-02-15T07:28:41;46.05;;;16.27;;
81697;SDS011;71109;52.514;5.708;2024-02-15T07:31:07;34.70;;;16.30;;
81697;SDS011;71109;52.514;5.708;2024-02-15T07:33:32;38.05;;;15.63;;
81697;SDS011;71109;52.514;5.708;2024-02-15T07:36:00;42.45;;;16.73;;
81697;SDS011;71109;52.514;5.708;2024-02-15T07:38:25;46.58;;;17.48;;
81697;SDS011;71109;52.514;5.708;2024-02-15T07:40:51;41.13;;;15.87;;
81697;SDS011;71109;52.514;5.708;2024-02-15T07:43:16;42.33;;;15.83;;
81697;SDS011;71109;52.514;5.708;2024-02-15T07:45:42;33.60;;;16.08;;
81697;SDS011;71109;52.514;5.708;2024-02-15T07:48:07;34.05;;;16.30;;
81697;SDS011;71109;52.514;5.708;2024-02-15T07:50:33;32.45;;;15.57;;
81697;SDS011;71109;52.514;5.708;2024-02-15T07:52:58;34.00;;;15.47;;
81697;SDS011;71109;52.514;5.708;2024-02-15T07:55:24;28.30;;;14.03;;
81697;SDS011;71109;52.514;5.708;2024-02-15T07:57:53;41.47;;;15.63;;
81697;SDS011;71109;52.514;5.708;2024-02-15T08:00:18;29.17;;;14.53;;
81697;SDS011;71109;52.514;5.708;2024-02-15T08:02:44;37.83;;;14.95;;
81697;SDS011;71109;52.514;5.708;2024-02-15T08:05:10;31.47;;;15.23;;
81697;SDS011;71109;52.514;5.708;2024-02-15T08:07:43;46.00;;;15.18;;
81697;SDS011;71109;52.514;5.708;2024-02-15T08:10:15;36.92;;;14.52;;
81697;SDS011;71109;52.514;5.708;2024-02-15T08:12:41;34.75;;;14.63;;
81697;SDS011;71109;52.514;5.708;2024-02-15T08:15:08;31.08;;;13.95;;
81697;SDS011;71109;52.514;5.708;2024-02-15T08:17:40;33.40;;;14.60;;
81697;SDS011;71109;52.514;5.708;2024-02-15T08:20:15;30.55;;;13.30;;
81697;SDS011;71109;52.514;5.708;2024-02-15T08:22:46;29.15;;;14.02;;
81697;SDS011;71109;52.514;5.708;2024-02-15T08:25:12;29.67;;;13.90;;
81697;SDS011;71109;52.514;5.708;2024-02-15T08:27:40;24.13;;;11.43;;
81697;SDS011;71109;52.514;5.708;2024-02-15T08:30:09;26.17;;;13.82;;
81697;SDS011;71109;52.514;5.708;2024-02-15T08:32:35;25.45;;;12.73;;
81697;SDS011;71109;52.514;5.708;2024-02-15T08:35:01;25.75;;;11.52;;
81697;SDS011;71109;52.514;5.708;2024-02-15T08:37:29;29.98;;;11.57;;
81697;SDS011;71109;52.514;5.708;2024-02-15T08:39:55;25.08;;;12.00;;
81697;SDS011;71109;52.514;5.708;2024-02-15T08:42:21;21.00;;;10.05;;
81697;SDS011;71109;52.514;5.708;2024-02-15T08:44:47;22.80;;;10.32;;
81697;SDS011;71109;52.514;5.708;2024-02-15T08:47:13;23.08;;;11.10;;
81697;SDS011;71109;52.514;5.708;2024-02-15T08:49:39;19.05;;;10.18;;
81697;SDS011;71109;52.514;5.708;2024-02-15T08:52:05;23.48;;;9.80;;
81697;SDS011;71109;52.514;5.708;2024-02-15T08:54:32;21.17;;;9.38;;
81697;SDS011;71109;52.514;5.708;2024-02-15T08:56:58;18.42;;;9.75;;
81697;SDS011;71109;52.514;5.708;2024-02-15T08:59:23;17.60;;;8.60;;
81697;SDS011;71109;52.514;5.708;2024-02-15T09:01:50;17.33;;;9.10;;
81697;SDS011;71109;52.514;5.708;2024-02-15T09:04:16;15.73;;;8.10;;
81697;SDS011;71109;52.514;5.708;2024-02-15T09:06:41;20.23;;;8.13;;
81697;SDS011;71109;52.514;5.708;2024-02-15T09:09:08;19.38;;;8.93;;
81697;SDS011;71109;52.514;5.708;2024-02-15T09:11:33;15.95;;;7.45;;
81697;SDS011;71109;52.514;5.708;2024-02-15T09:13:59;16.20;;;7.43;;
81697;SDS011;71109;52.514;5.708;2024-02-15T09:16:25;13.25;;;6.85;;
81697;SDS011;71109;52.514;5.708;2024-02-15T09:18:50;17.30;;;7.25;;
81697;SDS011;71109;52.514;5.708;2024-02-15T09:21:16;12.83;;;7.30;;
81697;SDS011;71109;52.514;5.708;2024-02-15T09:23:41;12.82;;;7.55;;
81697;SDS011;71109;52.514;5.708;2024-02-15T09:26:06;15.57;;;7.53;;
81697;SDS011;71109;52.514;5.708;2024-02-15T09:28:35;17.45;;;7.22;;
81697;SDS011;71109;52.514;5.708;2024-02-15T09:31:00;14.10;;;7.15;;
81697;SDS011;71109;52.514;5.708;2024-02-15T09:33:26;10.98;;;6.15;;
81697;SDS011;71109;52.514;5.708;2024-02-15T09:35:52;11.95;;;6.40;;
81697;SDS011;71109;52.514;5.708;2024-02-15T09:38:20;14.93;;;7.28;;
81697;SDS011;71109;52.514;5.708;2024-02-15T09:40:49;12.60;;;6.75;;
81697;SDS011;71109;52.514;5.708;2024-02-15T09:43:15;26.77;;;6.78;;
81697;SDS011;71109;52.514;5.708;2024-02-15T09:45:41;12.20;;;6.88;;
81697;SDS011;71109;52.514;5.708;2024-02-15T09:48:06;11.80;;;6.03;;
81697;SDS011;71109;52.514;5.708;2024-02-15T09:50:34;12.23;;;6.25;;
81697;SDS011;71109;52.514;5.708;2024-02-15T09:53:00;9.25;;;5.32;;
81697;SDS011;71109;52.514;5.708;2024-02-15T09:55:27;12.40;;;5.88;;
81697;SDS011;71109;52.514;5.708;2024-02-15T09:57:53;9.52;;;5.88;;
81697;SDS011;71109;52.514;5.708;2024-02-15T10:00:19;9.07;;;5.90;;
81697;SDS011;71109;52.514;5.708;2024-02-15T10:02:51;10.63;;;6.30;;
81697;SDS011;71109;52.514;5.708;2024-02-15T10:05:20;12.10;;;6.80;;
81697;SDS011;71109;52.514;5.708;2024-02-15T10:07:46;9.45;;;5.75;;
81697;SDS011;71109;52.514;5.708;2024-02-15T10:10:16;14.05;;;6.25;;
81697;SDS011;71109;52.514;5.708;2024-02-15T10:12:42;10.85;;;6.50;;
81697;SDS011;71109;52.514;5.708;2024-02-15T10:15:26;10.02;;;5.80;;
81697;SDS011;71109;52.514;5.708;2024-02-15T10:17:54;8.32;;;5.85;;
81697;SDS011;71109;52.514;5.708;2024-02-15T10:20:21;16.55;;;6.07;;
81697;SDS011;71109;52.514;5.708;2024-02-15T10:22:46;10.98;;;6.50;;
81697;SDS011;71109;52.514;5.708;2024-02-15T10:25:12;9.27;;;5.83;;
81697;SDS011;71109;52.514;5.708;2024-02-15T10:27:39;12.35;;;6.40;;
81697;SDS011;71109;52.514;5.708;2024-02-15T10:30:15;9.27;;;5.78;;
81697;SDS011;71109;52.514;5.708;2024-02-15T10:32:41;10.32;;;6.13;;
81697;SDS011;71109;52.514;5.708;2024-02-15T10:35:07;10.32;;;5.53;;
81697;SDS011;71109;52.514;5.708;2024-02-15T10:37:33;12.23;;;6.17;;
81697;SDS011;71109;52.514;5.708;2024-02-15T10:40:05;10.87;;;6.10;;
81697;SDS011;71109;52.514;5.708;2024-02-15T10:42:32;11.45;;;7.20;;
81697;SDS011;71109;52.514;5.708;2024-02-15T10:45:00;12.25;;;8.00;;
81697;SDS011;71109;52.514;5.708;2024-02-15T10:47:30;16.10;;;7.57;;
81697;SDS011;71109;52.514;5.708;2024-02-15T10:49:56;14.25;;;7.03;;
81697;SDS011;71109;52.514;5.708;2024-02-15T10:52:22;13.90;;;7.10;;
81697;SDS011;71109;52.514;5.708;2024-02-15T10:54:53;21.75;;;8.43;;
81697;SDS011;71109;52.514;5.708;2024-02-15T10:57:25;18.50;;;7.63;;
81697;SDS011;71109;52.514;5.708;2024-02-15T10:59:54;17.85;;;7.65;;
81697;SDS011;71109;52.514;5.708;2024-02-15T11:02:27;18.00;;;7.80;;
81697;SDS011;71109;52.514;5.708;2024-02-15T11:05:06;17.00;;;7.63;;
81697;SDS011;71109;52.514;5.708;2024-02-15T11:07:35;20.50;;;8.20;;
81697;SDS011;71109;52.514;5.708;2024-02-15T11:10:01;24.45;;;8.98;;
81697;SDS011;71109;52.514;5.708;2024-02-15T11:12:33;13.07;;;7.32;;
81697;SDS011;71109;52.514;5.708;2024-02-15T11:14:59;15.15;;;8.68;;
81697;SDS011;71109;52.514;5.708;2024-02-15T11:20:05;24.25;;;8.55;;
81697;SDS011;71109;52.514;5.708;2024-02-15T11:22:35;20.13;;;7.63;;
81697;SDS011;71109;52.514;5.708;2024-02-15T11:25:07;21.20;;;9.00;;
81697;SDS011;71109;52.514;5.708;2024-02-15T11:27:40;19.25;;;8.88;;
81697;SDS011;71109;52.514;5.708;2024-02-15T11:30:06;20.20;;;8.90;;
81697;SDS011;71109;52.514;5.708;2024-02-15T11:32:40;17.02;;;7.40;;
81697;SDS011;71109;52.514;5.708;2024-02-15T11:37:55;19.17;;;8.80;;
81697;SDS011;71109;52.514;5.708;2024-02-15T11:40:24;18.08;;;8.32;;
81697;SDS011;71109;52.514;5.708;2024-02-15T11:42:57;18.60;;;8.55;;
81697;SDS011;71109;52.514;5.708;2024-02-15T11:45:24;17.05;;;8.45;;
81697;SDS011;71109;52.514;5.708;2024-02-15T11:47:51;19.50;;;8.25;;
81697;SDS011;71109;52.514;5.708;2024-02-15T11:50:18;15.82;;;8.18;;
81697;SDS011;71109;52.514;5.708;2024-02-15T11:52:47;16.83;;;8.90;;
81697;SDS011;71109;52.514;5.708;2024-02-15T11:55:19;18.25;;;8.68;;
81697;SDS011;71109;52.514;5.708;2024-02-15T11:57:54;26.25;;;9.48;;
81697;SDS011;71109;52.514;5.708;2024-02-15T12:00:26;20.73;;;9.27;;
81697;SDS011;71109;52.514;5.708;2024-02-15T12:03:10;24.00;;;8.73;;
81697;SDS011;71109;52.514;5.708;2024-02-15T12:05:57;20.65;;;8.57;;
81697;SDS011;71109;52.514;5.708;2024-02-15T12:08:45;23.15;;;8.55;;
81697;SDS011;71109;52.514;5.708;2024-02-15T12:11:30;19.65;;;9.20;;
81697;SDS011;71109;52.514;5.708;2024-02-15T12:14:14;24.90;;;8.20;;
81697;SDS011;71109;52.514;5.708;2024-02-15T12:16:59;24.77;;;8.98;;
81697;SDS011;71109;52.514;5.708;2024-02-15T12:19:47;17.95;;;8.45;;
81697;SDS011;71109;52.514;5.708;2024-02-15T12:22:19;18.08;;;8.43;;
81697;SDS011;71109;52.514;5.708;2024-02-15T12:24:56;20.38;;;8.10;;
81697;SDS011;71109;52.514;5.708;2024-02-15T12:27:22;20.00;;;8.93;;
81697;SDS011;71109;52.514;5.708;2024-02-15T12:29:55;18.60;;;8.75;;
81697;SDS011;71109;52.514;5.708;2024-02-15T12:32:23;19.92;;;8.73;;
81697;SDS011;71109;52.514;5.708;2024-02-15T12:34:52;21.63;;;9.15;;
81697;SDS011;71109;52.514;5.708;2024-02-15T12:37:19;18.48;;;8.10;;
81697;SDS011;71109;52.514;5.708;2024-02-15T12:39:48;21.80;;;8.98;;
81697;SDS011;71109;52.514;5.708;2024-02-15T12:42:14;24.63;;;9.13;;
81697;SDS011;71109;52.514;5.708;2024-02-15T12:44:42;18.20;;;9.20;;
81697;SDS011;71109;52.514;5.708;2024-02-15T12:47:17;19.60;;;8.63;;
81697;SDS011;71109;52.514;5.708;2024-02-15T12:49:43;20.45;;;8.80;;
81697;SDS011;71109;52.514;5.708;2024-02-15T12:55:37;25.73;;;10.35;;
81697;SDS011;71109;52.514;5.708;2024-02-15T12:58:14;22.98;;;10.43;;
81697;SDS011;71109;52.514;5.708;2024-02-15T13:00:40;22.88;;;9.05;;
81697;SDS011;71109;52.514;5.708;2024-02-15T13:03:06;21.77;;;9.93;;
81697;SDS011;71109;52.514;5.708;2024-02-15T13:05:36;19.60;;;10.95;;
81697;SDS011;71109;52.514;5.708;2024-02-15T13:08:02;19.02;;;10.02;;
81697;SDS011;71109;52.514;5.708;2024-02-15T13:10:30;28.98;;;10.68;;
81697;SDS011;71109;52.514;5.708;2024-02-15T13:12:56;25.23;;;11.35;;
81697;SDS011;71109;52.514;5.708;2024-02-15T13:15:25;25.15;;;10.10;;
81697;SDS011;71109;52.514;5.708;2024-02-15T13:17:57;21.35;;;10.68;;
81697;SDS011;71109;52.514;5.708;2024-02-15T13:20:23;30.33;;;10.85;;
81697;SDS011;71109;52.514;5.708;2024-02-15T13:23:04;23.55;;;11.68;;
81697;SDS011;71109;52.514;5.708;2024-02-15T13:25:34;25.15;;;10.70;;
81697;SDS011;71109;52.514;5.708;2024-02-15T13:28:01;24.38;;;10.60;;
81697;SDS011;71109;52.514;5.708;2024-02-15T13:30:29;24.60;;;10.95;;
81697;SDS011;71109;52.514;5.708;2024-02-15T13:32:55;21.83;;;10.45;;
81697;SDS011;71109;52.514;5.708;2024-02-15T13:35:21;21.17;;;10.15;;
81697;SDS011;71109;52.514;5.708;2024-02-15T13:37:49;22.90;;;9.10;;
81697;SDS011;71109;52.514;5.708;2024-02-15T13:40:17;25.02;;;9.63;;
81697;SDS011;71109;52.514;5.708;2024-02-15T13:42:45;19.88;;;10.68;;
81697;SDS011;71109;52.514;5.708;2024-02-15T13:45:23;21.83;;;9.50;;
81697;SDS011;71109;52.514;5.708;2024-02-15T13:48:18;23.02;;;9.50;;
81697;SDS011;71109;52.514;5.708;2024-02-15T13:50:44;22.83;;;9.30;;
81697;SDS011;71109;52.514;5.708;2024-02-15T13:53:09;20.45;;;8.50;;
81697;SDS011;71109;52.514;5.708;2024-02-15T13:55:35;24.73;;;9.43;;
81697;SDS011;71109;52.514;5.708;2024-02-15T13:58:02;20.08;;;8.75;;
81697;SDS011;71109;52.514;5.708;2024-02-15T14:00:27;16.10;;;8.02;;
81697;SDS011;71109;52.514;5.708;2024-02-15T14:02:59;19.25;;;8.38;;
81697;SDS011;71109;52.514;5.708;2024-02-15T14:05:26;14.27;;;7.75;;
81697;SDS011;71109;52.514;5.708;2024-02-15T14:07:56;16.40;;;7.63;;
81697;SDS011;71109;52.514;5.708;2024-02-15T14:10:27;19.23;;;9.00;;
81697;SDS011;71109;52.514;5.708;2024-02-15T14:12:54;14.20;;;7.40;;
81697;SDS011;71109;52.514;5.708;2024-02-15T14:15:49;18.90;;;7.95;;
81697;SDS011;71109;52.514;5.708;2024-02-15T14:18:14;13.88;;;8.30;;
81697;SDS011;71109;52.514;5.708;2024-02-15T14:20:41;15.00;;;8.15;;
81697;SDS011;71109;52.514;5.708;2024-02-15T14:23:07;19.13;;;8.55;;
81697;SDS011;71109;52.514;5.708;2024-02-15T14:25:38;15.00;;;8.02;;
81697;SDS011;71109;52.514;5.708;2024-02-15T14:28:04;22.42;;;7.80;;
81697;SDS011;71109;52.514;5.708;2024-02-15T14:30:32;16.23;;;7.65;;
81697;SDS011;71109;52.514;5.708;2024-02-15T14:33:16;12.95;;;6.18;;
81697;SDS011;71109;52.514;5.708;2024-02-15T14:35:44;20.10;;;7.15;;
81697;SDS011;71109;52.514;5.708;2024-02-15T14:38:10;10.85;;;5.95;;
81697;SDS011;71109;52.514;5.708;2024-02-15T14:40:37;24.25;;;7.05;;
81697;SDS011;71109;52.514;5.708;2024-02-15T14:43:03;19.95;;;6.40;;